Time;durP1;ratioP1;P1;durP2;ratioP2;P2;SDS_P1;SDS_P2;PMS_P1;PMS_P2;Temp;Humidity;BMP_temperature;BMP_pressure;BME280_temperature;BME280_humidity;BME280_pressure;Samples;Min_cycle;Max_cycle;Signal;HPM_P1;HPM_P2
2023/12/21 00:00:29;;;;;;;0.57;0.57;;;;;;;12.49;69.42;100792.44;5060191;28;20063;-84
2023/12/21 00:02:55;;;;;;;1.85;1.75;;;;;;;12.60;68.69;100783.22;5065642;28;20082;-84
2023/12/21 00:05:21;;;;;;;0.10;0.10;;;;;;;12.44;68.66;100776.63;5058997;28;20036;-84
2023/12/21 00:07:47;;;;;;;0.10;0.10;;;;;;;12.58;68.50;100766.44;5054668;28;20061;-83
2023/12/21 00:10:14;;;;;;;0.10;0.10;;;;;;;12.46;69.27;100766.81;5055389;28;20021;-86
2023/12/21 00:12:40;;;;;;;0.10;0.10;;;;;;;12.53;69.21;100749.75;5054039;28;20033;-83
2023/12/21 00:15:07;;;;;;;0.10;0.10;;;;;;;12.54;68.98;100751.50;5058130;28;20411;-85
2023/12/21 00:17:33;;;;;;;0.10;0.10;;;;;;;12.57;68.76;100740.81;5058657;28;20041;-85
2023/12/21 00:20:00;;;;;;;1.95;1.85;;;;;;;12.52;69.29;100753.34;5052736;28;20048;-83
2023/12/21 00:22:26;;;;;;;0.15;0.15;;;;;;;12.60;68.91;100751.34;5053904;28;20519;-84
2023/12/21 00:24:52;;;;;;;0.10;0.10;;;;;;;12.60;68.74;100739.84;5047146;28;20108;-84
2023/12/21 00:27:19;;;;;;;0.10;0.10;;;;;;;12.60;68.92;100735.38;5051102;28;20420;-83
2023/12/21 00:29:45;;;;;;;0.17;0.17;;;;;;;12.61;68.51;100726.50;5062024;28;20033;-84
2023/12/21 00:32:11;;;;;;;0.30;0.28;;;;;;;12.67;68.67;100719.25;5070430;28;20028;-84
2023/12/21 00:34:37;;;;;;;2.08;1.95;;;;;;;12.59;68.95;100695.56;5058591;28;20025;-84
2023/12/21 00:37:03;;;;;;;1.00;1.00;;;;;;;12.62;68.87;100701.66;5050804;28;20025;-85
2023/12/21 00:39:30;;;;;;;0.03;0.03;;;;;;;12.52;68.78;100700.19;5060980;28;20033;-83
2023/12/21 00:41:56;;;;;;;0.10;0.10;;;;;;;12.58;68.78;100688.50;5060751;28;20037;-84
2023/12/21 00:44:22;;;;;;;0.05;0.05;;;;;;;12.64;68.60;100674.19;5062852;28;20071;-84
2023/12/21 00:46:48;;;;;;;0.10;0.10;;;;;;;12.67;68.77;100668.75;5055974;28;20045;-86
2023/12/21 00:49:15;;;;;;;0.10;0.10;;;;;;;12.64;68.21;100672.38;5056975;28;20151;-84
2023/12/21 00:51:41;;;;;;;0.10;0.10;;;;;;;12.51;69.21;100677.22;5061657;28;20036;-83
2023/12/21 00:54:07;;;;;;;0.00;0.00;;;;;;;12.56;69.14;100667.31;5060389;28;20029;-82
2023/12/21 00:56:36;;;;;;;0.10;0.10;;;;;;;12.46;69.44;100657.84;5059069;28;20060;-83
2023/12/21 00:59:04;;;;;;;0.10;0.10;;;;;;;12.43;69.13;100657.97;5059218;28;20051;-83
2023/12/21 01:01:30;;;;;;;0.10;0.10;;;;;;;12.58;69.23;100648.63;5059122;28;20048;-84
2023/12/21 01:03:56;;;;;;;0.10;0.10;;;;;;;12.48;69.42;100634.78;5062263;28;20029;-85
2023/12/21 01:06:22;;;;;;;0.10;0.10;;;;;;;12.44;69.12;100659.72;5057462;28;20033;-85
2023/12/21 01:08:48;;;;;;;0.10;0.10;;;;;;;12.52;69.20;100646.19;5059372;28;20245;-85
2023/12/21 01:11:15;;;;;;;0.73;0.52;;;;;;;12.53;69.30;100654.09;5050808;28;20130;-85
2023/12/21 01:13:41;;;;;;;0.17;0.17;;;;;;;12.53;69.32;100643.47;5053867;28;20611;-85
2023/12/21 01:16:07;;;;;;;0.30;0.30;;;;;;;12.52;69.26;100636.41;5042810;28;20032;-85
2023/12/21 01:18:33;;;;;;;0.10;0.10;;;;;;;12.48;69.26;100650.72;5046497;28;20033;-85
2023/12/21 01:20:59;;;;;;;0.13;0.13;;;;;;;12.58;68.97;100630.91;5047626;28;20025;-82
2023/12/21 01:23:26;;;;;;;0.10;0.10;;;;;;;12.57;68.79;100629.19;5055422;28;20033;-84
2023/12/21 01:25:52;;;;;;;0.10;0.10;;;;;;;12.42;69.73;100625.22;5047323;28;20055;-84
2023/12/21 01:28:18;;;;;;;0.10;0.10;;;;;;;12.50;68.89;100624.97;5055228;28;20124;-84
2023/12/21 01:30:44;;;;;;;0.30;0.30;;;;;;;12.54;69.03;100633.72;5054181;28;20048;-82
2023/12/21 01:33:10;;;;;;;0.85;0.80;;;;;;;12.60;69.31;100617.59;5046461;28;20442;-83
2023/12/21 01:35:37;;;;;;;0.10;0.10;;;;;;;12.61;68.80;100598.03;5040231;28;20115;-82
2023/12/21 01:38:03;;;;;;;0.10;0.10;;;;;;;12.49;68.91;100596.66;5040263;28;20039;-83
2023/12/21 01:40:29;;;;;;;0.10;0.10;;;;;;;12.50;69.06;100603.72;5038401;28;20041;-83
2023/12/21 01:42:55;;;;;;;0.10;0.10;;;;;;;12.65;68.94;100605.00;5039431;28;20053;-82
2023/12/21 01:45:21;;;;;;;0.10;0.10;;;;;;;12.35;69.66;100598.88;5048412;28;20052;-83
2023/12/21 01:47:48;;;;;;;0.10;0.10;;;;;;;12.50;69.73;100600.16;5049436;28;20045;-81
2023/12/21 01:50:15;;;;;;;0.10;0.10;;;;;;;12.51;69.59;100608.13;5053832;28;20436;-82
2023/12/21 01:52:42;;;;;;;0.10;0.10;;;;;;;12.46;69.34;100610.91;5049805;28;20080;-81
2023/12/21 01:55:09;;;;;;;0.10;0.10;;;;;;;12.59;69.01;100598.09;5048342;28;20487;-82
2023/12/21 01:57:37;;;;;;;0.10;0.10;;;;;;;12.62;68.92;100595.34;5051699;28;20037;-82
2023/12/21 02:00:04;;;;;;;0.20;0.20;;;;;;;12.56;69.03;100584.91;5053874;28;20071;-83
2023/12/21 02:02:30;;;;;;;1.08;1.08;;;;;;;12.58;69.29;100583.06;5065037;28;20036;-82
2023/12/21 02:04:57;;;;;;;3.83;2.17;;;;;;;12.51;68.61;100585.97;5068140;28;20032;-82
2023/12/21 02:07:23;;;;;;;0.10;0.10;;;;;;;12.51;69.19;100570.91;5067819;28;20085;-83
2023/12/21 02:09:49;;;;;;;0.10;0.10;;;;;;;12.64;68.69;100570.50;5062890;28;20087;-83
2023/12/21 02:12:16;;;;;;;0.10;0.10;;;;;;;12.64;68.61;100576.69;5066573;28;20025;-83
2023/12/21 02:14:42;;;;;;;1.75;1.40;;;;;;;12.68;68.11;100572.13;5062340;28;20025;-82
2023/12/21 02:17:13;;;;;;;0.10;0.10;;;;;;;12.57;68.98;100576.03;5063491;28;20033;-81
2023/12/21 02:19:40;;;;;;;0.10;0.10;;;;;;;12.57;68.44;100561.84;5057022;28;20135;-82
2023/12/21 02:22:08;;;;;;;0.10;0.10;;;;;;;12.65;68.52;100556.28;5057427;28;20037;-81
2023/12/21 02:24:34;;;;;;;0.10;0.10;;;;;;;12.61;69.06;100556.41;5059875;28;20029;-82
2023/12/21 02:27:00;;;;;;;0.10;0.10;;;;;;;12.62;68.63;100544.84;5072306;28;20033;-81
2023/12/21 02:29:27;;;;;;;0.10;0.10;;;;;;;12.56;69.03;100552.13;5073394;28;20044;-81
2023/12/21 02:31:53;;;;;;;0.10;0.10;;;;;;;12.62;68.65;100533.31;5070153;28;20049;-83
2023/12/21 02:34:19;;;;;;;0.10;0.10;;;;;;;12.58;68.79;100529.03;5063214;28;21472;-83
2023/12/21 02:36:45;;;;;;;2.05;1.95;;;;;;;12.65;68.90;100532.34;5057538;28;20377;-82
2023/12/21 02:39:12;;;;;;;0.82;0.82;;;;;;;12.53;68.96;100534.50;5055953;28;20056;-82
2023/12/21 02:41:41;;;;;;;0.20;0.20;;;;;;;12.64;68.94;100543.94;5058097;28;20032;-82
2023/12/21 02:44:07;;;;;;;0.10;0.10;;;;;;;12.63;69.03;100521.78;5069867;28;20013;-81
2023/12/21 02:46:33;;;;;;;0.10;0.10;;;;;;;12.49;68.88;100530.22;5067441;28;20044;-83
2023/12/21 02:49:00;;;;;;;1.35;1.35;;;;;;;12.58;68.78;100529.03;5062019;28;20056;-83
2023/12/21 02:51:26;;;;;;;0.10;0.10;;;;;;;12.61;68.41;100512.97;5064415;28;20033;-82
2023/12/21 02:53:52;;;;;;;0.10;0.10;;;;;;;12.68;68.46;100518.97;5060283;28;20029;-81
2023/12/21 02:56:18;;;;;;;2.28;2.17;;;;;;;12.45;69.61;100502.88;5058665;28;20028;-82
2023/12/21 02:58:45;;;;;;;0.10;0.10;;;;;;;12.59;68.77;100475.84;5056621;28;20036;-83
2023/12/21 03:01:11;;;;;;;0.15;0.15;;;;;;;12.54;68.94;100464.50;5056161;28;20056;-82
2023/12/21 03:03:37;;;;;;;0.10;0.10;;;;;;;12.58;68.83;100455.50;5056041;28;20029;-83
2023/12/21 03:06:03;;;;;;;0.10;0.10;;;;;;;12.58;69.11;100460.81;5055700;28;20037;-82
2023/12/21 03:08:29;;;;;;;0.10;0.10;;;;;;;12.54;68.60;100448.56;5055264;28;20064;-81
2023/12/21 03:10:56;;;;;;;0.15;0.15;;;;;;;12.61;68.93;100434.13;5056382;28;20111;-83
2023/12/21 03:13:22;;;;;;;0.10;0.10;;;;;;;12.66;68.58;100425.13;5057393;28;20584;-83
2023/12/21 03:15:49;;;;;;;0.10;0.10;;;;;;;12.63;68.55;100418.13;5061575;28;20029;-83
2023/12/21 03:18:15;;;;;;;0.25;0.25;;;;;;;12.67;68.62;100421.56;5061785;28;20033;-84
2023/12/21 03:20:42;;;;;;;0.10;0.10;;;;;;;12.58;68.78;100407.66;5065310;28;20033;-83
2023/12/21 03:23:08;;;;;;;0.10;0.10;;;;;;;12.51;69.65;100423.88;5066270;28;20025;-81
2023/12/21 03:25:34;;;;;;;0.20;0.20;;;;;;;12.59;69.01;100433.31;5066663;28;20040;-84
2023/12/21 03:28:00;;;;;;;0.10;0.10;;;;;;;12.61;68.65;100423.50;5071054;28;20040;-84
2023/12/21 03:30:27;;;;;;;0.17;0.17;;;;;;;12.66;68.67;100425.13;5066226;28;20365;-81
2023/12/21 03:32:53;;;;;;;0.38;0.38;;;;;;;12.68;68.92;100428.59;5063999;28;20029;-83
2023/12/21 03:35:19;;;;;;;0.10;0.10;;;;;;;12.52;69.28;100420.31;5066523;28;20028;-83
2023/12/21 03:37:45;;;;;;;0.45;0.45;;;;;;;12.59;69.12;100409.41;5067433;28;20025;-82
2023/12/21 03:40:12;;;;;;;0.10;0.10;;;;;;;12.59;69.47;100404.06;5064175;28;20036;-82
2023/12/21 03:42:38;;;;;;;0.10;0.10;;;;;;;12.56;69.23;100398.00;5062914;28;20021;-82
2023/12/21 03:45:05;;;;;;;0.63;0.63;;;;;;;12.61;69.64;100375.66;5050002;28;20028;-83
2023/12/21 03:47:31;;;;;;;0.28;0.28;;;;;;;12.50;69.73;100371.66;5051805;28;20033;-83
2023/12/21 03:49:57;;;;;;;0.70;0.52;;;;;;;12.57;69.45;100363.41;5055180;28;20021;-83
2023/12/21 03:52:24;;;;;;;0.10;0.10;;;;;;;12.55;69.33;100373.22;5055036;28;20032;-83
2023/12/21 03:54:50;;;;;;;0.10;0.10;;;;;;;12.61;69.79;100374.78;5055123;28;20155;-84
2023/12/21 03:57:16;;;;;;;0.38;0.38;;;;;;;12.66;68.83;100377.28;5055662;28;20043;-84
2023/12/21 03:59:42;;;;;;;1.55;1.45;;;;;;;12.68;69.02;100346.22;5058525;28;20442;-86
2023/12/21 04:02:08;;;;;;;8.88;2.25;;;;;;;12.70;68.88;100357.66;5063745;28;20059;-86
2023/12/21 04:04:35;;;;;;;0.10;0.10;;;;;;;12.57;69.59;100359.88;5072432;28;20078;-87
2023/12/21 04:07:02;;;;;;;0.10;0.10;;;;;;;12.59;69.18;100360.69;5075188;28;20025;-86
2023/12/21 04:09:28;;;;;;;0.10;0.10;;;;;;;12.44;70.07;100330.22;5061678;28;20021;-86
2023/12/21 04:11:54;;;;;;;0.10;0.10;;;;;;;12.64;69.17;100333.97;5055861;28;20044;-85
2023/12/21 04:14:20;;;;;;;0.10;0.10;;;;;;;12.62;69.49;100312.72;5054854;28;20476;-83
2023/12/21 04:16:48;;;;;;;0.10;0.10;;;;;;;12.65;69.21;100311.75;5054057;28;20083;-83
2023/12/21 04:19:14;;;;;;;0.10;0.10;;;;;;;12.68;69.45;100293.06;5054426;28;20446;-84
2023/12/21 04:21:44;;;;;;;0.10;0.10;;;;;;;12.71;69.58;100274.31;5056992;28;20029;-85
2023/12/21 04:24:10;;;;;;;0.15;0.15;;;;;;;12.78;68.95;100259.88;5053354;28;20036;-84
2023/12/21 04:26:37;;;;;;;0.10;0.10;;;;;;;12.64;69.45;100263.06;5053865;28;20033;-84
2023/12/21 04:29:03;;;;;;;7.57;2.25;;;;;;;12.62;69.33;100268.44;5053009;28;20028;-83
2023/12/21 04:31:29;;;;;;;0.17;0.17;;;;;;;12.65;69.30;100258.59;5053702;28;20029;-84
2023/12/21 04:33:55;;;;;;;1.00;1.00;;;;;;;12.68;68.97;100256.69;5046694;28;20141;-83
2023/12/21 04:36:21;;;;;;;0.10;0.10;;;;;;;12.66;69.46;100250.59;5054076;28;20033;-83
2023/12/21 04:38:48;;;;;;;0.10;0.10;;;;;;;12.64;69.47;100272.84;5048219;28;20030;-84
2023/12/21 04:41:14;;;;;;;0.38;0.38;;;;;;;12.60;69.78;100272.09;5054540;28;20065;-85
2023/12/21 04:43:41;;;;;;;0.10;0.10;;;;;;;12.73;69.17;100246.75;5059030;28;20201;-84
2023/12/21 04:46:07;;;;;;;0.65;0.65;;;;;;;12.66;69.00;100237.31;5054235;28;20041;-83
2023/12/21 04:48:37;;;;;;;0.10;0.10;;;;;;;12.69;69.64;100241.63;5049318;28;20037;-82
2023/12/21 04:51:03;;;;;;;0.10;0.10;;;;;;;12.55;69.68;100269.59;5052666;28;20040;-82
2023/12/21 04:53:29;;;;;;;0.10;0.10;;;;;;;12.69;69.89;100231.00;5054073;28;20049;-82
2023/12/21 04:55:55;;;;;;;0.10;0.10;;;;;;;12.77;69.68;100231.53;5060018;28;20028;-82
2023/12/21 04:58:22;;;;;;;0.10;0.10;;;;;;;12.68;70.13;100237.22;5071360;28;20028;-83
2023/12/21 05:00:50;;;;;;;0.10;0.10;;;;;;;12.56;70.44;100246.53;5063003;28;20033;-84
2023/12/21 05:03:19;;;;;;;0.10;0.10;;;;;;;12.52;71.26;100232.50;5061235;28;20078;-84
2023/12/21 05:05:46;;;;;;;0.10;0.10;;;;;;;12.52;70.72;100223.66;5063533;28;20155;-84
2023/12/21 05:08:13;;;;;;;0.32;0.32;;;;;;;12.43;71.52;100211.59;5067368;28;20166;-85
2023/12/21 05:10:39;;;;;;;1.10;1.10;;;;;;;12.33;71.26;100187.16;5063519;28;20107;-86
2023/12/21 05:13:06;;;;;;;0.10;0.10;;;;;;;12.38;71.22;100181.69;5062170;28;20025;-84
2023/12/21 05:15:32;;;;;;;0.13;0.13;;;;;;;12.34;71.54;100185.38;5059229;28;20033;-84
2023/12/21 05:17:59;;;;;;;0.22;0.22;;;;;;;12.35;71.27;100181.78;5061383;28;20055;-84
2023/12/21 05:20:25;;;;;;;0.10;0.10;;;;;;;12.26;71.52;100194.50;5059295;28;20400;-83
2023/12/21 05:22:51;;;;;;;1.10;1.10;;;;;;;12.45;71.55;100196.47;5057241;28;20060;-82
2023/12/21 05:25:17;;;;;;;0.10;0.10;;;;;;;12.40;71.94;100211.69;5060642;28;20121;-82
2023/12/21 05:27:44;;;;;;;0.10;0.10;;;;;;;12.42;71.78;100223.13;5068969;28;20028;-83
2023/12/21 05:30:10;;;;;;;0.10;0.10;;;;;;;12.41;72.07;100210.78;5061472;28;20108;-84
2023/12/21 05:32:37;;;;;;;0.20;0.20;;;;;;;12.37;72.54;100217.13;5062599;28;20033;-84
2023/12/21 05:35:04;;;;;;;0.10;0.10;;;;;;;12.36;72.73;100224.25;5059541;28;20551;-83
2023/12/21 05:37:30;;;;;;;0.10;0.10;;;;;;;12.33;72.91;100211.06;5058155;28;20029;-82
2023/12/21 05:39:56;;;;;;;0.20;0.20;;;;;;;12.22;73.46;100208.81;5055783;28;20041;-84
2023/12/21 05:42:22;;;;;;;0.38;0.38;;;;;;;12.12;73.95;100202.09;5057582;28;20090;-85
2023/12/21 05:44:48;;;;;;;0.20;0.20;;;;;;;12.13;74.81;100203.84;5056917;28;20435;-83
2023/12/21 05:47:14;;;;;;;0.10;0.10;;;;;;;12.12;74.69;100204.75;5056971;28;20040;-85
2023/12/21 05:49:41;;;;;;;0.10;0.10;;;;;;;12.13;74.55;100201.19;5054545;28;20032;-83
2023/12/21 05:52:07;;;;;;;0.10;0.10;;;;;;;12.05;74.96;100174.03;5054955;28;20060;-84
2023/12/21 05:54:36;;;;;;;0.85;0.85;;;;;;;12.04;75.45;100156.41;5056983;28;20029;-83
2023/12/21 05:57:02;;;;;;;0.65;0.65;;;;;;;12.02;75.64;100179.47;5054834;28;20028;-83
2023/12/21 05:59:29;;;;;;;0.20;0.20;;;;;;;12.01;75.37;100175.94;5054705;28;20028;-84
2023/12/21 06:01:55;;;;;;;0.10;0.10;;;;;;;12.14;74.52;100189.66;5051006;28;20055;-83
2023/12/21 06:04:21;;;;;;;0.43;0.43;;;;;;;12.07;75.33;100178.38;5055974;28;20461;-82
2023/12/21 06:06:47;;;;;;;0.15;0.15;;;;;;;12.01;76.03;100167.13;5055498;28;20127;-83
2023/12/21 06:09:14;;;;;;;0.10;0.10;;;;;;;11.94;75.41;100148.72;5055845;28;20048;-82
2023/12/21 06:11:41;;;;;;;0.82;0.82;;;;;;;12.08;74.71;100131.47;5055974;28;20041;-83
2023/12/21 06:14:07;;;;;;;0.10;0.10;;;;;;;11.90;75.48;100125.00;5055720;28;20103;-84
2023/12/21 06:16:36;;;;;;;0.10;0.10;;;;;;;12.02;75.04;100115.75;5055109;28;20030;-84
2023/12/21 06:19:09;;;;;;;2.50;2.28;;;;;;;11.95;75.46;100118.63;5048906;28;20086;-82
2023/12/21 06:21:38;;;;;;;0.80;0.80;;;;;;;12.03;75.18;100091.78;5049771;28;20056;-84
2023/12/21 06:24:05;;;;;;;0.10;0.10;;;;;;;12.02;74.91;100083.91;5048214;28;20496;-83
2023/12/21 06:26:38;;;;;;;0.85;0.85;;;;;;;12.09;73.92;100085.41;5050754;28;20032;-83
2023/12/21 06:29:07;;;;;;;0.10;0.10;;;;;;;12.11;73.74;100095.03;5051141;28;20032;-83
2023/12/21 06:31:37;;;;;;;0.10;0.10;;;;;;;12.21;73.89;100092.91;5051757;28;20043;-84
2023/12/21 06:34:06;;;;;;;0.10;0.10;;;;;;;12.16;73.36;100100.16;5053549;28;20029;-83
2023/12/21 06:36:32;;;;;;;0.10;0.10;;;;;;;12.13;73.55;100084.34;5052052;28;20539;-83
2023/12/21 06:38:58;;;;;;;0.15;0.15;;;;;;;12.24;73.15;100060.88;5046261;28;20143;-83
2023/12/21 06:41:25;;;;;;;0.10;0.10;;;;;;;12.32;72.42;100070.34;5051040;28;20037;-86
2023/12/21 06:43:51;;;;;;;0.10;0.10;;;;;;;12.35;72.29;100059.59;5056669;28;20033;-85
2023/12/21 06:46:17;;;;;;;0.10;0.10;;;;;;;12.27;72.49;100055.47;5057841;28;20029;-85
2023/12/21 06:48:43;;;;;;;0.10;0.10;;;;;;;12.24;72.22;100058.22;5069812;28;20169;-85
2023/12/21 06:51:11;;;;;;;0.30;0.30;;;;;;;12.33;72.25;100056.16;5061498;28;20024;-86
2023/12/21 06:53:37;;;;;;;0.13;0.13;;;;;;;12.40;71.15;100046.97;5056399;28;20021;-87
2023/12/21 06:56:09;;;;;;;0.10;0.10;;;;;;;12.39;71.21;100058.56;5052444;28;20040;-85
2023/12/21 06:58:35;;;;;;;0.75;0.75;;;;;;;12.52;71.21;100030.53;5058797;28;20021;-84
2023/12/21 07:01:01;;;;;;;0.30;0.30;;;;;;;12.55;71.23;100021.63;5057055;28;20032;-87
2023/12/21 07:03:28;;;;;;;0.10;0.10;;;;;;;12.58;71.27;100037.41;5054348;28;20040;-86
2023/12/21 07:05:54;;;;;;;0.10;0.10;;;;;;;12.46;71.35;100025.47;5053331;28;20032;-84
2023/12/21 07:08:22;;;;;;;0.50;0.50;;;;;;;12.49;71.67;100028.03;5047925;28;20531;-83
2023/12/21 07:10:48;;;;;;;0.10;0.10;;;;;;;12.32;72.72;100051.75;5054924;28;20025;-83
2023/12/21 07:13:14;;;;;;;0.10;0.10;;;;;;;12.13;74.10;100012.66;5066126;28;20021;-83
2023/12/21 07:15:41;;;;;;;0.98;0.98;;;;;;;12.14;74.17;99993.13;5059978;28;20472;-84
2023/12/21 07:18:07;;;;;;;0.10;0.10;;;;;;;12.05;74.39;100002.34;5051988;28;20029;-80
2023/12/21 07:20:33;;;;;;;0.15;0.15;;;;;;;12.07;75.05;99979.22;5051070;28;20036;-84
2023/12/21 07:23:00;;;;;;;0.10;0.10;;;;;;;12.10;74.49;99987.09;5052624;28;20081;-84
2023/12/21 07:25:26;;;;;;;0.10;0.10;;;;;;;11.92;75.94;99993.94;5056280;28;20182;-84
2023/12/21 07:27:53;;;;;;;0.98;0.98;;;;;;;11.94;75.67;99996.56;5048378;28;20029;-83
2023/12/21 07:30:20;;;;;;;0.90;0.90;;;;;;;11.99;76.32;99970.72;5052710;28;20017;-84
2023/12/21 07:32:46;;;;;;;0.10;0.10;;;;;;;11.90;76.41;99994.94;5048658;28;20489;-85
2023/12/21 07:35:13;;;;;;;0.10;0.10;;;;;;;11.89;76.26;99972.84;5057943;28;20029;-82
2023/12/21 07:37:39;;;;;;;0.15;0.15;;;;;;;11.83;77.21;99965.13;5054483;28;20164;-80
2023/12/21 07:40:06;;;;;;;0.10;0.10;;;;;;;11.87;77.41;99969.38;5050750;28;20024;-81
2023/12/21 07:42:32;;;;;;;0.10;0.10;;;;;;;11.89;77.50;99951.59;5053864;28;20064;-81
2023/12/21 07:44:58;;;;;;;0.10;0.10;;;;;;;11.79;77.60;99998.03;5050148;28;20041;-81
2023/12/21 07:47:24;;;;;;;0.43;0.43;;;;;;;11.81;77.20;99964.31;5055161;28;20476;-83
2023/12/21 07:49:50;;;;;;;0.15;0.15;;;;;;;11.81;77.45;99966.97;5050000;28;20403;-81
2023/12/21 07:52:17;;;;;;;1.15;1.10;;;;;;;11.79;78.09;99961.72;5025159;28;20033;-81
2023/12/21 07:54:43;;;;;;;0.10;0.10;;;;;;;11.92;77.14;99967.41;5052491;28;20025;-80
2023/12/21 07:57:10;;;;;;;0.10;0.10;;;;;;;11.90;78.03;99979.00;5047134;28;20112;-81
2023/12/21 07:59:37;;;;;;;0.10;0.10;;;;;;;11.91;77.08;99986.03;5047985;28;20446;-82
2023/12/21 08:02:03;;;;;;;0.65;0.60;;;;;;;12.01;77.35;99974.16;5059837;28;20546;-82
2023/12/21 08:04:30;;;;;;;0.10;0.10;;;;;;;12.06;76.45;99963.38;5057714;28;20061;-80
2023/12/21 08:06:56;;;;;;;0.10;0.10;;;;;;;12.08;76.32;99945.59;5048629;28;20025;-80
2023/12/21 08:09:22;;;;;;;0.10;0.10;;;;;;;11.94;76.72;99962.91;5056157;28;20530;-82
2023/12/21 08:11:48;;;;;;;0.32;0.32;;;;;;;12.07;76.09;99923.47;5059985;28;20017;-80
2023/12/21 08:14:14;;;;;;;0.10;0.10;;;;;;;12.12;76.23;99910.91;5052300;28;20025;-81
2023/12/21 08:16:40;;;;;;;0.10;0.10;;;;;;;12.08;76.12;99934.97;5059937;28;20036;-82
2023/12/21 08:19:07;;;;;;;0.10;0.10;;;;;;;12.07;76.21;99950.03;5026692;28;20043;-82
2023/12/21 08:21:36;;;;;;;0.10;0.10;;;;;;;12.06;76.41;99897.00;5050152;28;20029;-82
2023/12/21 08:24:03;;;;;;;0.10;0.10;;;;;;;12.14;75.36;99902.84;5046221;28;20029;-80
2023/12/21 08:26:29;;;;;;;0.25;0.25;;;;;;;12.26;74.55;99922.72;5054734;28;20057;-81
2023/12/21 08:28:56;;;;;;;0.10;0.10;;;;;;;12.34;74.27;99914.44;5060281;28;20075;-81
2023/12/21 08:31:25;;;;;;;0.10;0.10;;;;;;;12.21;74.26;99920.28;5058118;28;20040;-82
2023/12/21 08:33:52;;;;;;;0.10;0.10;;;;;;;12.30;74.58;99943.78;5058594;28;20029;-82
2023/12/21 08:36:18;;;;;;;0.10;0.10;;;;;;;12.30;73.91;99903.94;5064704;28;20377;-81
2023/12/21 08:38:44;;;;;;;0.10;0.10;;;;;;;12.51;73.58;99900.41;5058820;28;20257;-81
2023/12/21 08:41:10;;;;;;;0.10;0.10;;;;;;;12.47;73.11;99894.38;5060866;28;20029;-81
2023/12/21 08:43:40;;;;;;;0.10;0.10;;;;;;;12.58;73.06;99907.22;5053183;28;20109;-81
2023/12/21 08:46:06;;;;;;;0.63;0.63;;;;;;;12.44;74.46;99921.09;5049886;28;20025;-83
2023/12/21 08:48:32;;;;;;;0.17;0.17;;;;;;;12.46;74.26;99895.28;5058086;28;20526;-84
2023/12/21 08:50:58;;;;;;;0.10;0.10;;;;;;;12.36;74.24;99916.09;5052166;28;20029;-82
2023/12/21 08:53:24;;;;;;;0.20;0.20;;;;;;;12.43;74.46;99895.44;5055361;28;20056;-82
2023/12/21 08:55:52;;;;;;;0.10;0.10;;;;;;;12.37;74.65;99914.31;5047223;28;20587;-82
2023/12/21 08:58:18;;;;;;;0.10;0.10;;;;;;;12.55;73.54;99876.31;5055387;28;20538;-83
2023/12/21 09:00:44;;;;;;;0.10;0.10;;;;;;;12.46;74.18;99908.59;5050672;28;20025;-83
2023/12/21 09:03:10;;;;;;;0.10;0.10;;;;;;;12.50;74.25;99894.25;5056241;28;20029;-81
2023/12/21 09:05:37;;;;;;;0.10;0.10;;;;;;;12.61;73.55;99884.03;5059373;28;20029;-82
2023/12/21 09:08:06;;;;;;;0.10;0.10;;;;;;;12.50;73.90;99918.16;5052612;28;20107;-85
2023/12/21 09:10:32;;;;;;;0.13;0.13;;;;;;;12.53;74.34;99915.38;5059084;28;20399;-85
2023/12/21 09:12:59;;;;;;;0.10;0.10;;;;;;;12.56;74.37;99899.31;5057297;28;20033;-82
2023/12/21 09:15:26;;;;;;;0.10;0.10;;;;;;;12.65;73.52;99907.78;5053401;28;20055;-85
2023/12/21 09:17:53;;;;;;;0.10;0.10;;;;;;;12.64;74.08;99964.56;5052708;28;20029;-85
2023/12/21 09:20:19;;;;;;;0.10;0.10;;;;;;;12.60;74.42;99916.84;5061721;28;20029;-85
2023/12/21 09:22:47;;;;;;;0.10;0.10;;;;;;;12.65;74.74;99886.53;5056364;28;20419;-84
2023/12/21 09:25:13;;;;;;;0.10;0.10;;;;;;;12.56;75.36;99899.31;5055131;28;20096;-85
2023/12/21 09:27:40;;;;;;;0.10;0.10;;;;;;;12.67;75.41;99900.63;5060033;28;20025;-84
2023/12/21 09:30:06;;;;;;;0.10;0.10;;;;;;;12.52;76.30;99871.13;5059231;28;20078;-86
2023/12/21 09:32:33;;;;;;;0.10;0.10;;;;;;;12.73;75.67;99887.91;5060228;28;20044;-83
2023/12/21 09:34:59;;;;;;;0.85;0.70;;;;;;;12.64;76.56;99891.00;5067139;28;20057;-83
2023/12/21 09:37:25;;;;;;;0.10;0.10;;;;;;;12.67;76.10;99890.00;5062620;28;20045;-82
2023/12/21 09:39:51;;;;;;;0.10;0.10;;;;;;;12.66;75.88;99882.94;5046558;28;20022;-83
2023/12/21 09:42:19;;;;;;;0.10;0.10;;;;;;;12.72;76.45;99874.69;5054678;28;20020;-82
2023/12/21 09:44:47;;;;;;;0.00;0.00;;;;;;;12.82;75.33;99878.66;5054101;28;20399;-81
2023/12/21 09:47:16;;;;;;;0.10;0.10;;;;;;;12.74;75.66;99870.19;5055650;28;20086;-80
2023/12/21 09:49:44;;;;;;;0.10;0.10;;;;;;;12.83;75.46;99859.13;5047196;28;20156;-86
2023/12/21 09:52:11;;;;;;;0.10;0.10;;;;;;;12.79;75.34;99885.00;5049053;28;20021;-84
2023/12/21 09:54:41;;;;;;;0.10;0.10;;;;;;;12.84;75.10;99860.88;5052128;28;20041;-85
2023/12/21 09:57:09;;;;;;;0.10;0.10;;;;;;;12.87;74.77;99882.00;5043651;28;20098;-84
2023/12/21 09:59:36;;;;;;;0.10;0.10;;;;;;;12.82;75.08;99862.72;5054461;28;20030;-86
2023/12/21 10:02:11;;;;;;;0.10;0.10;;;;;;;12.84;75.13;99870.66;5061755;28;20060;-86
2023/12/21 10:04:41;;;;;;;0.73;0.73;;;;;;;12.85;75.20;99867.06;5045389;28;20038;-84
2023/12/21 10:07:09;;;;;;;0.10;0.10;;;;;;;12.92;74.80;99852.53;5051679;28;20411;-83
2023/12/21 10:09:37;;;;;;;0.10;0.10;;;;;;;12.85;74.37;99889.19;5048499;28;20064;-84
2023/12/21 10:12:04;;;;;;;0.10;0.10;;;;;;;13.10;74.00;99872.13;5049446;28;20504;-84
2023/12/21 10:14:31;;;;;;;0.10;0.10;;;;;;;13.09;74.05;99855.28;5043457;28;20025;-84
2023/12/21 10:16:58;;;;;;;0.22;0.22;;;;;;;13.11;73.63;99877.34;5051417;28;20029;-84
2023/12/21 10:19:25;;;;;;;0.10;0.10;;;;;;;13.10;73.32;99872.13;5050204;28;20032;-85
2023/12/21 10:21:52;;;;;;;0.10;0.10;;;;;;;13.10;73.53;99896.06;5054201;28;20396;-84
2023/12/21 10:24:19;;;;;;;0.10;0.10;;;;;;;13.23;73.06;99849.34;5056915;28;20029;-85
2023/12/21 10:26:46;;;;;;;0.30;0.30;;;;;;;13.11;73.08;99852.56;5052899;28;20033;-84
2023/12/21 10:29:16;;;;;;;3.72;1.20;;;;;;;13.17;73.42;99870.91;5050539;28;20067;-84
2023/12/21 10:31:47;;;;;;;0.10;0.10;;;;;;;13.25;72.89;99887.34;5048613;28;20456;-84
2023/12/21 10:34:15;;;;;;;0.10;0.10;;;;;;;13.27;73.18;99911.22;5045787;28;20104;-84
2023/12/21 10:36:42;;;;;;;0.10;0.10;;;;;;;13.24;73.40;99859.03;5047782;28;20037;-85
2023/12/21 10:39:11;;;;;;;0.10;0.10;;;;;;;13.19;74.00;99844.22;5052582;28;20097;-85
2023/12/21 10:41:42;;;;;;;0.10;0.10;;;;;;;13.15;74.30;99864.78;5052795;28;20491;-85
2023/12/21 10:44:08;;;;;;;0.10;0.10;;;;;;;13.14;74.26;99841.78;5044935;28;20101;-83
2023/12/21 10:46:38;;;;;;;0.57;0.52;;;;;;;13.05;75.40;99836.91;5050357;28;20036;-83
2023/12/21 10:49:10;;;;;;;0.10;0.10;;;;;;;13.07;75.53;99837.66;5051345;28;20498;-83
2023/12/21 10:51:39;;;;;;;0.10;0.10;;;;;;;12.91;75.95;99830.41;5048243;28;20026;-85
2023/12/21 10:54:08;;;;;;;0.10;0.10;;;;;;;12.94;76.24;99848.88;5050546;28;20047;-82
2023/12/21 10:56:39;;;;;;;0.10;0.10;;;;;;;12.84;76.54;99839.59;5055251;28;20060;-82
2023/12/21 10:59:08;;;;;;;0.10;0.10;;;;;;;12.94;76.14;99840.91;5050188;28;20031;-84
2023/12/21 11:01:36;;;;;;;0.10;0.10;;;;;;;12.95;76.49;99852.41;5039106;28;20075;-83
2023/12/21 11:04:03;;;;;;;0.10;0.10;;;;;;;12.82;76.61;99830.81;5046131;28;20445;-84
2023/12/21 11:06:33;;;;;;;0.10;0.10;;;;;;;12.79;77.02;99830.97;5046732;28;20028;-83
2023/12/21 11:09:03;;;;;;;0.10;0.10;;;;;;;12.86;76.48;99860.78;5041742;28;20037;-84
2023/12/21 11:11:31;;;;;;;0.30;0.30;;;;;;;13.01;75.96;99848.59;5047217;28;20026;-83
2023/12/21 11:13:57;;;;;;;0.40;0.40;;;;;;;13.06;76.09;99819.97;5045038;28;20041;-82
2023/12/21 11:16:28;;;;;;;6.93;2.72;;;;;;;13.07;75.90;99805.75;5050413;28;20438;-83
2023/12/21 11:18:57;;;;;;;1.92;1.75;;;;;;;13.03;76.22;99813.00;5051597;28;20025;-85
2023/12/21 11:21:26;;;;;;;0.20;0.20;;;;;;;12.94;76.44;99824.09;5053912;28;20067;-83
2023/12/21 11:23:53;;;;;;;1.20;1.20;;;;;;;13.10;75.79;99830.41;5050251;28;20654;-84
2023/12/21 11:26:25;;;;;;;0.28;0.28;;;;;;;12.83;76.91;99799.81;5052451;28;20021;-83